sensor_id;sensor_type;location;lat;lon;timestamp;temperature;humidity
35381;DHT22;21486;51.916;8.378;2023-02-19T01:33:07;9.50;99.90
35381;DHT22;21486;51.916;8.378;2023-02-19T01:35:32;9.50;99.90
35381;DHT22;21486;51.916;8.378;2023-02-19T01:37:58;9.60;99.90
35381;DHT22;21486;51.916;8.378;2023-02-19T01:40:24;9.60;99.90
35381;DHT22;21486;51.916;8.378;2023-02-19T01:42:50;9.60;99.90
35381;DHT22;21486;51.916;8.378;2023-02-19T01:45:37;9.60;99.90
35381;DHT22;21486;51.916;8.378;2023-02-19T01:48:19;9.60;99.90
35381;DHT22;21486;51.916;8.378;2023-02-19T01:50:51;9.70;99.90
35381;DHT22;21486;51.916;8.378;2023-02-19T01:53:22;9.70;99.90
35381;DHT22;21486;51.916;8.378;2023-02-19T01:55:52;9.70;99.90
35381;DHT22;21486;51.916;8.378;2023-02-19T01:58:19;9.70;99.90
35381;DHT22;21486;51.916;8.378;2023-02-19T02:00:45;9.70;99.90
35381;DHT22;21486;51.916;8.378;2023-02-19T02:03:11;9.70;99.90
35381;DHT22;21486;51.916;8.378;2023-02-19T02:05:57;9.70;99.90
35381;DHT22;21486;51.916;8.378;2023-02-19T02:08:26;9.70;99.90
35381;DHT22;21486;51.916;8.378;2023-02-19T02:11:11;9.70;99.90
35381;DHT22;21486;51.916;8.378;2023-02-19T02:13:38;9.60;99.90
35381;DHT22;21486;51.916;8.378;2023-02-19T02:16:21;9.60;99.90
35381;DHT22;21486;51.916;8.378;2023-02-19T02:22:24;9.60;99.90
35381;DHT22;21486;51.916;8.378;2023-02-19T02:28:06;9.70;99.90
35381;DHT22;21486;51.916;8.378;2023-02-19T02:30:46;9.70;99.90
35381;DHT22;21486;51.916;8.378;2023-02-19T02:33:35;9.60;99.90
35381;DHT22;21486;51.916;8.378;2023-02-19T02:36:09;9.60;99.90
35381;DHT22;21486;51.916;8.378;2023-02-19T02:38:39;9.60;99.90
35381;DHT22;21486;51.916;8.378;2023-02-19T02:41:06;9.60;99.90
35381;DHT22;21486;51.916;8.378;2023-02-19T02:43:32;9.60;99.90
35381;DHT22;21486;51.916;8.378;2023-02-19T02:45:58;9.50;99.90
35381;DHT22;21486;51.916;8.378;2023-02-19T02:53:25;9.60;99.90
35381;DHT22;21486;51.916;8.378;2023-02-19T02:56:12;9.60;99.90
35381;DHT22;21486;51.916;8.378;2023-02-19T02:58:38;9.60;99.90
35381;DHT22;21486;51.916;8.378;2023-02-19T03:01:08;9.60;99.90
35381;DHT22;21486;51.916;8.378;2023-02-19T03:03:58;9.60;99.90
35381;DHT22;21486;51.916;8.378;2023-02-19T03:06:28;9.60;99.90
35381;DHT22;21486;51.916;8.378;2023-02-19T03:09:06;9.60;99.90
35381;DHT22;21486;51.916;8.378;2023-02-19T03:11:35;9.60;99.90
35381;DHT22;21486;51.916;8.378;2023-02-19T03:14:30;9.50;99.90
35381;DHT22;21486;51.916;8.378;2023-02-19T03:17:36;9.40;99.90
35381;DHT22;21486;51.916;8.378;2023-02-19T03:20:22;9.40;99.90
35381;DHT22;21486;51.916;8.378;2023-02-19T03:22:49;9.50;99.90
35381;DHT22;21486;51.916;8.378;2023-02-19T03:25:22;9.50;99.90
35381;DHT22;21486;51.916;8.378;2023-02-19T03:28:09;9.50;99.90
35381;DHT22;21486;51.916;8.378;2023-02-19T03:30:39;9.50;99.90
35381;DHT22;21486;51.916;8.378;2023-02-19T03:35:47;9.60;99.90
35381;DHT22;21486;51.916;8.378;2023-02-19T03:38:21;9.50;99.90
35381;DHT22;21486;51.916;8.378;2023-02-19T03:43:41;9.50;99.90
35381;DHT22;21486;51.916;8.378;2023-02-19T03:46:50;9.50;99.90
35381;DHT22;21486;51.916;8.378;2023-02-19T03:49:45;9.50;99.90
35381;DHT22;21486;51.916;8.378;2023-02-19T03:52:40;9.50;99.90
35381;DHT22;21486;51.916;8.378;2023-02-19T04:00:48;9.40;99.90
35381;DHT22;21486;51.916;8.378;2023-02-19T04:03:22;9.40;99.90
35381;DHT22;21486;51.916;8.378;2023-02-19T04:05:55;9.30;99.90
35381;DHT22;21486;51.916;8.378;2023-02-19T04:08:23;9.20;99.90
35381;DHT22;21486;51.916;8.378;2023-02-19T04:10:50;9.20;99.90
35381;DHT22;21486;51.916;8.378;2023-02-19T04:13:30;9.30;99.90
35381;DHT22;21486;51.916;8.378;2023-02-19T04:16:00;9.20;99.90
35381;DHT22;21486;51.916;8.378;2023-02-19T04:18:32;9.30;99.90
35381;DHT22;21486;51.916;8.378;2023-02-19T04:21:01;9.30;99.90
35381;DHT22;21486;51.916;8.378;2023-02-19T04:23:29;9.30;99.90
35381;DHT22;21486;51.916;8.378;2023-02-19T04:25:59;9.30;99.90
35381;DHT22;21486;51.916;8.378;2023-02-19T04:28:26;9.30;99.90
35381;DHT22;21486;51.916;8.378;2023-02-19T04:30:52;9.20;99.90
35381;DHT22;21486;51.916;8.378;2023-02-19T04:33:18;9.20;99.90
35381;DHT22;21486;51.916;8.378;2023-02-19T04:35:43;9.20;99.90
35381;DHT22;21486;51.916;8.378;2023-02-19T04:38:09;9.10;99.90
35381;DHT22;21486;51.916;8.378;2023-02-19T04:40:34;9.10;99.90
35381;DHT22;21486;51.916;8.378;2023-02-19T04:43:00;9.10;99.90
35381;DHT22;21486;51.916;8.378;2023-02-19T04:45:26;9.20;99.90
35381;DHT22;21486;51.916;8.378;2023-02-19T04:47:51;9.10;99.90
35381;DHT22;21486;51.916;8.378;2023-02-19T04:50:17;9.10;99.90
35381;DHT22;21486;51.916;8.378;2023-02-19T04:52:42;9.10;99.90
35381;DHT22;21486;51.916;8.378;2023-02-19T04:55:08;9.20;99.90
35381;DHT22;21486;51.916;8.378;2023-02-19T04:57:34;9.10;99.90
35381;DHT22;21486;51.916;8.378;2023-02-19T05:00:00;9.10;99.90
35381;DHT22;21486;51.916;8.378;2023-02-19T05:02:26;9.10;99.90
35381;DHT22;21486;51.916;8.378;2023-02-19T05:04:52;9.10;99.90
35381;DHT22;21486;51.916;8.378;2023-02-19T05:07:17;9.10;99.90
35381;DHT22;21486;51.916;8.378;2023-02-19T05:09:43;9.20;99.90
35381;DHT22;21486;51.916;8.378;2023-02-19T05:12:08;9.20;99.90
35381;DHT22;21486;51.916;8.378;2023-02-19T05:14:34;9.10;99.90
35381;DHT22;21486;51.916;8.378;2023-02-19T05:17:00;9.00;99.90
35381;DHT22;21486;51.916;8.378;2023-02-19T05:19:25;9.00;99.90
35381;DHT22;21486;51.916;8.378;2023-02-19T05:21:51;9.00;99.90
35381;DHT22;21486;51.916;8.378;2023-02-19T05:24:16;9.00;99.90
35381;DHT22;21486;51.916;8.378;2023-02-19T05:26:42;9.00;99.90
35381;DHT22;21486;51.916;8.378;2023-02-19T05:29:07;9.00;99.90
35381;DHT22;21486;51.916;8.378;2023-02-19T05:31:33;9.00;99.90
35381;DHT22;21486;51.916;8.378;2023-02-19T05:33:58;9.10;99.90
35381;DHT22;21486;51.916;8.378;2023-02-19T05:36:24;9.10;99.90
35381;DHT22;21486;51.916;8.378;2023-02-19T05:38:54;9.00;99.90
35381;DHT22;21486;51.916;8.378;2023-02-19T05:41:28;9.10;99.90
35381;DHT22;21486;51.916;8.378;2023-02-19T05:43:54;9.00;99.90
35381;DHT22;21486;51.916;8.378;2023-02-19T05:46:23;9.00;99.90
35381;DHT22;21486;51.916;8.378;2023-02-19T05:48:50;9.00;99.90
35381;DHT22;21486;51.916;8.378;2023-02-19T05:51:18;8.90;99.90
35381;DHT22;21486;51.916;8.378;2023-02-19T05:53:44;8.90;99.90
35381;DHT22;21486;51.916;8.378;2023-02-19T05:56:25;8.90;99.90
35381;DHT22;21486;51.916;8.378;2023-02-19T05:58:51;8.90;99.90
35381;DHT22;21486;51.916;8.378;2023-02-19T06:01:19;8.90;99.90
35381;DHT22;21486;51.916;8.378;2023-02-19T06:03:45;8.90;99.90
35381;DHT22;21486;51.916;8.378;2023-02-19T06:06:15;9.00;99.90
35381;DHT22;21486;51.916;8.378;2023-02-19T06:08:41;8.90;99.90
35381;DHT22;21486;51.916;8.378;2023-02-19T06:11:06;8.90;99.90
35381;DHT22;21486;51.916;8.378;2023-02-19T06:13:32;8.80;99.90
35381;DHT22;21486;51.916;8.378;2023-02-19T06:15:57;8.90;99.90
35381;DHT22;21486;51.916;8.378;2023-02-19T06:18:23;8.90;99.90
35381;DHT22;21486;51.916;8.378;2023-02-19T06:20:48;8.80;99.90
35381;DHT22;21486;51.916;8.378;2023-02-19T06:23:14;8.80;99.90
35381;DHT22;21486;51.916;8.378;2023-02-19T06:25:40;8.80;99.90
35381;DHT22;21486;51.916;8.378;2023-02-19T06:28:05;8.80;99.90
35381;DHT22;21486;51.916;8.378;2023-02-19T06:30:31;8.80;99.90
35381;DHT22;21486;51.916;8.378;2023-02-19T06:32:56;8.80;99.90
35381;DHT22;21486;51.916;8.378;2023-02-19T06:35:22;8.90;99.90
35381;DHT22;21486;51.916;8.378;2023-02-19T06:37:48;8.90;99.90
35381;DHT22;21486;51.916;8.378;2023-02-19T06:40:14;8.80;99.90
35381;DHT22;21486;51.916;8.378;2023-02-19T06:42:40;8.80;99.90
35381;DHT22;21486;51.916;8.378;2023-02-19T06:45:06;8.80;99.90
35381;DHT22;21486;51.916;8.378;2023-02-19T06:47:32;8.80;99.90
35381;DHT22;21486;51.916;8.378;2023-02-19T06:49:58;8.80;99.90
35381;DHT22;21486;51.916;8.378;2023-02-19T06:52:25;8.80;99.90
35381;DHT22;21486;51.916;8.378;2023-02-19T06:54:51;8.80;99.90
35381;DHT22;21486;51.916;8.378;2023-02-19T06:57:17;8.90;99.90
35381;DHT22;21486;51.916;8.378;2023-02-19T06:59:43;8.90;99.90
35381;DHT22;21486;51.916;8.378;2023-02-19T07:02:10;8.90;99.90
35381;DHT22;21486;51.916;8.378;2023-02-19T07:04:36;8.80;99.90
35381;DHT22;21486;51.916;8.378;2023-02-19T07:07:01;8.80;99.90
35381;DHT22;21486;51.916;8.378;2023-02-19T07:09:27;8.80;99.90
35381;DHT22;21486;51.916;8.378;2023-02-19T07:11:53;8.80;99.90
35381;DHT22;21486;51.916;8.378;2023-02-19T07:14:18;8.80;99.90
35381;DHT22;21486;51.916;8.378;2023-02-19T07:16:45;8.80;99.90
35381;DHT22;21486;51.916;8.378;2023-02-19T07:19:12;8.80;99.90
35381;DHT22;21486;51.916;8.378;2023-02-19T07:21:39;8.80;99.90
35381;DHT22;21486;51.916;8.378;2023-02-19T07:24:07;8.90;99.90
35381;DHT22;21486;51.916;8.378;2023-02-19T07:26:33;9.10;99.90
35381;DHT22;21486;51.916;8.378;2023-02-19T07:28:59;9.10;99.90
35381;DHT22;21486;51.916;8.378;2023-02-19T07:31:24;8.90;99.80
35381;DHT22;21486;51.916;8.378;2023-02-19T07:33:50;8.60;99.90
35381;DHT22;21486;51.916;8.378;2023-02-19T07:36:17;8.30;99.50
35381;DHT22;21486;51.916;8.378;2023-02-19T07:38:43;8.20;99.60
35381;DHT22;21486;51.916;8.378;2023-02-19T07:41:09;8.00;99.80
35381;DHT22;21486;51.916;8.378;2023-02-19T07:43:36;7.70;99.90
35381;DHT22;21486;51.916;8.378;2023-02-19T07:46:06;7.70;99.90
35381;DHT22;21486;51.916;8.378;2023-02-19T07:48:34;7.60;99.90
35381;DHT22;21486;51.916;8.378;2023-02-19T07:51:00;7.60;99.90
35381;DHT22;21486;51.916;8.378;2023-02-19T07:53:27;7.50;99.90
35381;DHT22;21486;51.916;8.378;2023-02-19T07:55:53;7.40;99.90
35381;DHT22;21486;51.916;8.378;2023-02-19T07:58:19;7.40;99.90
35381;DHT22;21486;51.916;8.378;2023-02-19T08:00:44;7.30;99.90
35381;DHT22;21486;51.916;8.378;2023-02-19T08:03:10;7.30;99.90
35381;DHT22;21486;51.916;8.378;2023-02-19T08:05:37;7.20;99.90
35381;DHT22;21486;51.916;8.378;2023-02-19T08:08:08;7.20;99.90
35381;DHT22;21486;51.916;8.378;2023-02-19T08:10:33;7.20;99.90
35381;DHT22;21486;51.916;8.378;2023-02-19T08:13:18;7.60;99.90
35381;DHT22;21486;51.916;8.378;2023-02-19T08:18:22;7.90;99.40
35381;DHT22;21486;51.916;8.378;2023-02-19T08:20:48;7.90;98.20
35381;DHT22;21486;51.916;8.378;2023-02-19T08:23:14;7.90;98.80
35381;DHT22;21486;51.916;8.378;2023-02-19T08:25:40;7.80;98.10
35381;DHT22;21486;51.916;8.378;2023-02-19T08:28:08;7.90;98.30
35381;DHT22;21486;51.916;8.378;2023-02-19T08:30:34;7.80;98.10
35381;DHT22;21486;51.916;8.378;2023-02-19T08:33:00;7.70;99.10
35381;DHT22;21486;51.916;8.378;2023-02-19T08:35:27;7.70;99.00
35381;DHT22;21486;51.916;8.378;2023-02-19T08:37:56;7.90;99.10
35381;DHT22;21486;51.916;8.378;2023-02-19T08:40:23;7.90;98.40
35381;DHT22;21486;51.916;8.378;2023-02-19T08:42:49;7.90;98.30
35381;DHT22;21486;51.916;8.378;2023-02-19T08:45:14;7.80;97.90
35381;DHT22;21486;51.916;8.378;2023-02-19T08:47:40;7.90;97.70
35381;DHT22;21486;51.916;8.378;2023-02-19T08:50:06;7.90;97.90
35381;DHT22;21486;51.916;8.378;2023-02-19T08:52:32;7.70;98.30
35381;DHT22;21486;51.916;8.378;2023-02-19T08:54:58;7.90;98.30
35381;DHT22;21486;51.916;8.378;2023-02-19T08:57:24;7.80;97.80
35381;DHT22;21486;51.916;8.378;2023-02-19T08:59:51;7.70;98.40
35381;DHT22;21486;51.916;8.378;2023-02-19T09:02:16;7.60;98.70
35381;DHT22;21486;51.916;8.378;2023-02-19T09:04:42;7.70;99.40
35381;DHT22;21486;51.916;8.378;2023-02-19T09:07:08;7.70;99.30
35381;DHT22;21486;51.916;8.378;2023-02-19T09:09:36;7.80;99.90
35381;DHT22;21486;51.916;8.378;2023-02-19T09:12:09;7.80;99.80
35381;DHT22;21486;51.916;8.378;2023-02-19T09:14:36;7.80;99.50
35381;DHT22;21486;51.916;8.378;2023-02-19T09:17:03;7.80;99.80
35381;DHT22;21486;51.916;8.378;2023-02-19T09:19:29;7.90;99.70
35381;DHT22;21486;51.916;8.378;2023-02-19T09:21:55;7.80;99.30
35381;DHT22;21486;51.916;8.378;2023-02-19T09:24:21;7.80;99.90
35381;DHT22;21486;51.916;8.378;2023-02-19T09:26:51;7.80;99.90
35381;DHT22;21486;51.916;8.378;2023-02-19T09:29:17;7.90;99.80
35381;DHT22;21486;51.916;8.378;2023-02-19T09:31:43;7.90;99.90
35381;DHT22;21486;51.916;8.378;2023-02-19T09:34:08;7.90;99.70
35381;DHT22;21486;51.916;8.378;2023-02-19T09:36:36;7.90;99.80
35381;DHT22;21486;51.916;8.378;2023-02-19T09:39:03;8.20;99.20
35381;DHT22;21486;51.916;8.378;2023-02-19T09:41:34;8.30;98.80
35381;DHT22;21486;51.916;8.378;2023-02-19T09:44:02;8.40;98.10
35381;DHT22;21486;51.916;8.378;2023-02-19T09:51:45;8.60;96.50
35381;DHT22;21486;51.916;8.378;2023-02-19T09:54:27;8.50;96.80
35381;DHT22;21486;51.916;8.378;2023-02-19T09:56:54;8.30;96.90
35381;DHT22;21486;51.916;8.378;2023-02-19T09:59:26;8.00;97.80
35381;DHT22;21486;51.916;8.378;2023-02-19T10:02:14;7.90;97.20
35381;DHT22;21486;51.916;8.378;2023-02-19T10:04:42;7.70;98.20
35381;DHT22;21486;51.916;8.378;2023-02-19T10:07:24;7.90;98.10
35381;DHT22;21486;51.916;8.378;2023-02-19T10:09:57;7.90;96.80
35381;DHT22;21486;51.916;8.378;2023-02-19T10:12:29;7.90;97.00
35381;DHT22;21486;51.916;8.378;2023-02-19T10:15:21;7.90;96.50
35381;DHT22;21486;51.916;8.378;2023-02-19T10:17:49;7.90;97.40
35381;DHT22;21486;51.916;8.378;2023-02-19T10:20:17;8.00;95.30
35381;DHT22;21486;51.916;8.378;2023-02-19T10:22:44;7.90;95.20
35381;DHT22;21486;51.916;8.378;2023-02-19T10:25:15;8.00;96.10
35381;DHT22;21486;51.916;8.378;2023-02-19T10:27:42;8.20;95.70
35381;DHT22;21486;51.916;8.378;2023-02-19T10:30:22;8.20;94.50
35381;DHT22;21486;51.916;8.378;2023-02-19T10:35:24;8.00;94.70
35381;DHT22;21486;51.916;8.378;2023-02-19T10:37:50;8.00;95.50
35381;DHT22;21486;51.916;8.378;2023-02-19T10:40:19;8.10;94.60
35381;DHT22;21486;51.916;8.378;2023-02-19T10:42:51;8.20;95.10
35381;DHT22;21486;51.916;8.378;2023-02-19T10:47:59;8.80;93.50
35381;DHT22;21486;51.916;8.378;2023-02-19T10:50:28;9.00;92.00
35381;DHT22;21486;51.916;8.378;2023-02-19T10:52:57;9.10;90.60
35381;DHT22;21486;51.916;8.378;2023-02-19T10:55:27;8.90;91.60
35381;DHT22;21486;51.916;8.378;2023-02-19T10:57:54;9.10;91.40
35381;DHT22;21486;51.916;8.378;2023-02-19T11:00:27;9.30;90.70
35381;DHT22;21486;51.916;8.378;2023-02-19T11:03:19;9.20;91.30
35381;DHT22;21486;51.916;8.378;2023-02-19T11:05:52;9.00;90.70
35381;DHT22;21486;51.916;8.378;2023-02-19T11:08:21;8.90;90.90
35381;DHT22;21486;51.916;8.378;2023-02-19T11:10:48;8.50;91.90
35381;DHT22;21486;51.916;8.378;2023-02-19T11:13:23;8.60;92.20
35381;DHT22;21486;51.916;8.378;2023-02-19T11:15:52;8.70;92.30
35381;DHT22;21486;51.916;8.378;2023-02-19T11:18:26;9.00;91.00
35381;DHT22;21486;51.916;8.378;2023-02-19T11:20:55;9.00;90.50
35381;DHT22;21486;51.916;8.378;2023-02-19T11:23:36;9.00;90.50
35381;DHT22;21486;51.916;8.378;2023-02-19T11:26:12;8.90;88.80
35381;DHT22;21486;51.916;8.378;2023-02-19T11:28:40;8.80;90.10
35381;DHT22;21486;51.916;8.378;2023-02-19T11:33:52;8.90;89.30
35381;DHT22;21486;51.916;8.378;2023-02-19T11:36:35;8.90;86.70
35381;DHT22;21486;51.916;8.378;2023-02-19T11:39:20;9.20;85.60
35381;DHT22;21486;51.916;8.378;2023-02-19T11:42:14;9.70;85.40
35381;DHT22;21486;51.916;8.378;2023-02-19T11:45:07;10.60;80.30
35381;DHT22;21486;51.916;8.378;2023-02-19T11:47:41;11.50;74.40
35381;DHT22;21486;51.916;8.378;2023-02-19T11:50:45;11.80;73.80
35381;DHT22;21486;51.916;8.378;2023-02-19T11:53:30;12.10;72.10
35381;DHT22;21486;51.916;8.378;2023-02-19T11:56:20;12.00;72.40
35381;DHT22;21486;51.916;8.378;2023-02-19T11:58:56;11.80;71.00
35381;DHT22;21486;51.916;8.378;2023-02-19T12:07:30;11.10;73.30
35381;DHT22;21486;51.916;8.378;2023-02-19T12:10:20;11.10;73.20
35381;DHT22;21486;51.916;8.378;2023-02-19T12:15:38;11.10;74.30
35381;DHT22;21486;51.916;8.378;2023-02-19T12:21:05;10.50;74.00
35381;DHT22;21486;51.916;8.378;2023-02-19T12:31:57;9.60;77.30
35381;DHT22;21486;51.916;8.378;2023-02-19T12:34:47;10.00;76.60
35381;DHT22;21486;51.916;8.378;2023-02-19T12:46:00;10.20;75.30
35381;DHT22;21486;51.916;8.378;2023-02-19T12:48:41;10.30;75.60
35381;DHT22;21486;51.916;8.378;2023-02-19T12:53:53;10.50;77.00
35381;DHT22;21486;51.916;8.378;2023-02-19T12:59:56;10.50;76.70
35381;DHT22;21486;51.916;8.378;2023-02-19T13:12:40;9.90;77.40
35381;DHT22;21486;51.916;8.378;2023-02-19T13:15:25;9.80;76.70
35381;DHT22;21486;51.916;8.378;2023-02-19T13:17:54;10.00;78.50
35381;DHT22;21486;51.916;8.378;2023-02-19T13:23:06;10.00;75.50
35381;DHT22;21486;51.916;8.378;2023-02-19T13:37:15;10.10;73.60
35381;DHT22;21486;51.916;8.378;2023-02-19T13:39:51;9.80;74.60
35381;DHT22;21486;51.916;8.378;2023-02-19T13:42:32;10.00;75.00
35381;DHT22;21486;51.916;8.378;2023-02-19T13:44:59;10.30;74.70
35381;DHT22;21486;51.916;8.378;2023-02-19T13:50:24;9.90;75.20
35381;DHT22;21486;51.916;8.378;2023-02-19T13:52:52;10.00;76.10
35381;DHT22;21486;51.916;8.378;2023-02-19T14:01:14;9.90;73.50
35381;DHT22;21486;51.916;8.378;2023-02-19T14:03:48;9.90;76.80
35381;DHT22;21486;51.916;8.378;2023-02-19T14:06:17;9.90;76.80
35381;DHT22;21486;51.916;8.378;2023-02-19T14:08:52;10.00;75.40
35381;DHT22;21486;51.916;8.378;2023-02-19T14:14:28;9.90;73.70
35381;DHT22;21486;51.916;8.378;2023-02-19T14:25:47;9.40;76.50
35381;DHT22;21486;51.916;8.378;2023-02-19T14:31:08;9.70;74.80
35381;DHT22;21486;51.916;8.378;2023-02-19T14:33:39;9.70;76.40
35381;DHT22;21486;51.916;8.378;2023-02-19T14:36:19;9.80;78.20
35381;DHT22;21486;51.916;8.378;2023-02-19T14:38:56;9.60;76.60
35381;DHT22;21486;51.916;8.378;2023-02-19T14:41:23;9.50;79.00
35381;DHT22;21486;51.916;8.378;2023-02-19T14:43:51;9.40;79.20
35381;DHT22;21486;51.916;8.378;2023-02-19T14:46:28;9.30;78.40
35381;DHT22;21486;51.916;8.378;2023-02-19T14:48:59;9.40;78.50
35381;DHT22;21486;51.916;8.378;2023-02-19T14:53:52;9.40;79.70
35381;DHT22;21486;51.916;8.378;2023-02-19T14:56:25;9.20;78.90
35381;DHT22;21486;51.916;8.378;2023-02-19T15:01:36;9.20;79.40
35381;DHT22;21486;51.916;8.378;2023-02-19T15:04:02;9.30;77.90
35381;DHT22;21486;51.916;8.378;2023-02-19T15:06:28;9.20;78.70
35381;DHT22;21486;51.916;8.378;2023-02-19T15:08:58;9.10;78.50
35381;DHT22;21486;51.916;8.378;2023-02-19T15:11:26;8.90;79.50
35381;DHT22;21486;51.916;8.378;2023-02-19T15:14:04;8.90;79.50
35381;DHT22;21486;51.916;8.378;2023-02-19T15:16:32;8.90;81.40
35381;DHT22;21486;51.916;8.378;2023-02-19T15:19:00;8.80;80.30
35381;DHT22;21486;51.916;8.378;2023-02-19T15:21:31;8.70;81.30
35381;DHT22;21486;51.916;8.378;2023-02-19T15:24:02;8.60;83.70
35381;DHT22;21486;51.916;8.378;2023-02-19T15:26:33;8.60;82.30
35381;DHT22;21486;51.916;8.378;2023-02-19T15:29:07;8.50;81.40
35381;DHT22;21486;51.916;8.378;2023-02-19T15:31:34;8.40;81.40
35381;DHT22;21486;51.916;8.378;2023-02-19T15:33:59;8.40;83.60
35381;DHT22;21486;51.916;8.378;2023-02-19T15:36:30;8.40;85.50
35381;DHT22;21486;51.916;8.378;2023-02-19T15:39:00;8.40;85.30
35381;DHT22;21486;51.916;8.378;2023-02-19T15:41:31;8.50;84.20
35381;DHT22;21486;51.916;8.378;2023-02-19T15:44:04;8.40;84.70
35381;DHT22;21486;51.916;8.378;2023-02-19T15:46:33;8.40;83.40
35381;DHT22;21486;51.916;8.378;2023-02-19T15:49:03;8.50;83.10
35381;DHT22;21486;51.916;8.378;2023-02-19T15:51:54;8.30;84.50
35381;DHT22;21486;51.916;8.378;2023-02-19T15:54:30;8.30;84.10
35381;DHT22;21486;51.916;8.378;2023-02-19T15:57:02;8.40;84.60
35381;DHT22;21486;51.916;8.378;2023-02-19T15:59:31;8.40;84.00
35381;DHT22;21486;51.916;8.378;2023-02-19T16:02:00;8.40;84.10
35381;DHT22;21486;51.916;8.378;2023-02-19T16:04:28;8.50;84.20
35381;DHT22;21486;51.916;8.378;2023-02-19T16:06:56;8.30;85.00
35381;DHT22;21486;51.916;8.378;2023-02-19T16:09:28;8.20;85.50
35381;DHT22;21486;51.916;8.378;2023-02-19T16:11:57;8.40;85.60
35381;DHT22;21486;51.916;8.378;2023-02-19T16:14:33;8.50;84.50
35381;DHT22;21486;51.916;8.378;2023-02-19T16:17:12;8.30;85.00
35381;DHT22;21486;51.916;8.378;2023-02-19T16:19:55;8.10;86.60
35381;DHT22;21486;51.916;8.378;2023-02-19T16:22:33;8.10;85.90
35381;DHT22;21486;51.916;8.378;2023-02-19T16:25:05;8.20;85.00
35381;DHT22;21486;51.916;8.378;2023-02-19T16:27:36;8.30;85.50
35381;DHT22;21486;51.916;8.378;2023-02-19T16:32:33;8.10;86.80
35381;DHT22;21486;51.916;8.378;2023-02-19T16:34:59;8.20;88.00
35381;DHT22;21486;51.916;8.378;2023-02-19T16:37:54;8.30;87.60
35381;DHT22;21486;51.916;8.378;2023-02-19T16:45:14;8.10;88.20
35381;DHT22;21486;51.916;8.378;2023-02-19T16:47:40;8.00;88.70
35381;DHT22;21486;51.916;8.378;2023-02-19T16:50:15;8.00;88.60
35381;DHT22;21486;51.916;8.378;2023-02-19T16:52:58;7.80;90.50
35381;DHT22;21486;51.916;8.378;2023-02-19T16:55:25;7.80;90.70
35381;DHT22;21486;51.916;8.378;2023-02-19T16:57:51;7.80;91.50
35381;DHT22;21486;51.916;8.378;2023-02-19T17:00:18;7.80;91.60
35381;DHT22;21486;51.916;8.378;2023-02-19T17:02:46;7.70;91.60
35381;DHT22;21486;51.916;8.378;2023-02-19T17:05:12;7.60;92.00
35381;DHT22;21486;51.916;8.378;2023-02-19T17:07:38;7.80;92.20
35381;DHT22;21486;51.916;8.378;2023-02-19T17:10:03;7.70;92.90
35381;DHT22;21486;51.916;8.378;2023-02-19T17:12:29;7.60;93.30
35381;DHT22;21486;51.916;8.378;2023-02-19T17:14:54;7.50;94.00
35381;DHT22;21486;51.916;8.378;2023-02-19T17:17:20;7.40;94.40
35381;DHT22;21486;51.916;8.378;2023-02-19T17:19:46;7.30;94.80
35381;DHT22;21486;51.916;8.378;2023-02-19T17:22:11;7.40;95.10
35381;DHT22;21486;51.916;8.378;2023-02-19T17:24:43;7.40;94.80
35381;DHT22;21486;51.916;8.378;2023-02-19T17:27:12;7.50;95.00
35381;DHT22;21486;51.916;8.378;2023-02-19T17:29:38;7.60;95.50
35381;DHT22;21486;51.916;8.378;2023-02-19T17:32:05;7.40;95.50
35381;DHT22;21486;51.916;8.378;2023-02-19T17:34:30;7.50;95.70
35381;DHT22;21486;51.916;8.378;2023-02-19T17:36:56;7.40;95.80
35381;DHT22;21486;51.916;8.378;2023-02-19T17:39:22;7.40;96.20
35381;DHT22;21486;51.916;8.378;2023-02-19T17:41:48;7.40;96.40
35381;DHT22;21486;51.916;8.378;2023-02-19T17:44:14;7.40;96.60
35381;DHT22;21486;51.916;8.378;2023-02-19T17:46:40;7.50;97.10
35381;DHT22;21486;51.916;8.378;2023-02-19T17:49:06;7.40;97.00
35381;DHT22;21486;51.916;8.378;2023-02-19T17:51:32;7.50;97.10
35381;DHT22;21486;51.916;8.378;2023-02-19T17:53:59;7.40;97.40
35381;DHT22;21486;51.916;8.378;2023-02-19T17:56:26;7.50;97.60
35381;DHT22;21486;51.916;8.378;2023-02-19T17:58:52;7.60;97.20
35381;DHT22;21486;51.916;8.378;2023-02-19T18:01:18;7.60;96.90
35381;DHT22;21486;51.916;8.378;2023-02-19T18:03:44;7.40;97.40
35381;DHT22;21486;51.916;8.378;2023-02-19T18:06:10;7.30;98.30
35381;DHT22;21486;51.916;8.378;2023-02-19T18:08:35;7.20;99.00
35381;DHT22;21486;51.916;8.378;2023-02-19T18:11:02;7.20;99.00
35381;DHT22;21486;51.916;8.378;2023-02-19T18:13:28;7.20;99.20
35381;DHT22;21486;51.916;8.378;2023-02-19T18:15:54;7.30;99.30
35381;DHT22;21486;51.916;8.378;2023-02-19T18:18:20;7.30;99.70
35381;DHT22;21486;51.916;8.378;2023-02-19T18:20:47;7.30;99.90
35381;DHT22;21486;51.916;8.378;2023-02-19T18:23:13;7.10;99.90
35381;DHT22;21486;51.916;8.378;2023-02-19T18:25:39;7.10;99.90
35381;DHT22;21486;51.916;8.378;2023-02-19T18:28:05;7.10;99.90
35381;DHT22;21486;51.916;8.378;2023-02-19T18:30:30;7.10;99.90
35381;DHT22;21486;51.916;8.378;2023-02-19T18:32:56;7.10;99.90
35381;DHT22;21486;51.916;8.378;2023-02-19T18:35:22;7.00;99.90
35381;DHT22;21486;51.916;8.378;2023-02-19T18:37:51;7.00;99.90
35381;DHT22;21486;51.916;8.378;2023-02-19T18:40:19;7.00;99.90
35381;DHT22;21486;51.916;8.378;2023-02-19T18:42:45;7.00;99.90
35381;DHT22;21486;51.916;8.378;2023-02-19T18:45:10;7.00;99.90
35381;DHT22;21486;51.916;8.378;2023-02-19T18:47:36;7.00;99.90
35381;DHT22;21486;51.916;8.378;2023-02-19T18:50:02;7.00;99.90
35381;DHT22;21486;51.916;8.378;2023-02-19T18:52:27;6.90;99.90
35381;DHT22;21486;51.916;8.378;2023-02-19T18:54:54;6.90;99.90
35381;DHT22;21486;51.916;8.378;2023-02-19T18:57:23;6.80;99.90
35381;DHT22;21486;51.916;8.378;2023-02-19T18:59:49;6.80;99.90
35381;DHT22;21486;51.916;8.378;2023-02-19T19:02:16;6.80;99.90
35381;DHT22;21486;51.916;8.378;2023-02-19T19:04:42;7.00;99.90
35381;DHT22;21486;51.916;8.378;2023-02-19T19:07:08;7.10;99.90
35381;DHT22;21486;51.916;8.378;2023-02-19T19:09:34;7.10;99.90
35381;DHT22;21486;51.916;8.378;2023-02-19T19:12:00;6.80;99.90
35381;DHT22;21486;51.916;8.378;2023-02-19T19:14:26;6.80;99.90
35381;DHT22;21486;51.916;8.378;2023-02-19T19:16:52;6.80;99.90
35381;DHT22;21486;51.916;8.378;2023-02-19T19:19:18;6.80;99.90
35381;DHT22;21486;51.916;8.378;2023-02-19T19:21:44;6.80;99.90
35381;DHT22;21486;51.916;8.378;2023-02-19T19:24:11;6.70;99.90
35381;DHT22;21486;51.916;8.378;2023-02-19T19:26:45;6.80;99.90
35381;DHT22;21486;51.916;8.378;2023-02-19T19:29:12;6.70;99.90
35381;DHT22;21486;51.916;8.378;2023-02-19T19:31:40;6.70;99.90
35381;DHT22;21486;51.916;8.378;2023-02-19T19:34:06;6.70;99.90
35381;DHT22;21486;51.916;8.378;2023-02-19T19:36:31;6.70;99.90
35381;DHT22;21486;51.916;8.378;2023-02-19T19:38:57;6.80;99.90
35381;DHT22;21486;51.916;8.378;2023-02-19T19:41:22;6.80;99.90
35381;DHT22;21486;51.916;8.378;2023-02-19T19:43:48;6.80;99.90
35381;DHT22;21486;51.916;8.378;2023-02-19T19:46:13;6.80;99.90
35381;DHT22;21486;51.916;8.378;2023-02-19T19:48:45;6.80;99.90